<?xml version="1.0" encoding="UTF-8" standalone="no" ?>
<gpx xmlns="http://www.topografix.com/GPX/1/1" xmlns:xsi="http://www.w3.org/2001/XMLSchema-instance" xsi:schemaLocation="http://www.topografix.com/GPX/1/1 http://www.topografix.com/GPX/1/1/gpx.xsd" version="1.1" creator="VisuGPX - https://www.visugpx.com">
  <metadata>
    <name>LE SENTIER DES ÉTANGS VAILLANT, DU CRÊT ET DU FORT</name>
    <desc><![CDATA[LE SENTIER DES ÉTANGS VAILLANT, DU CRÊT ET DU FORT]]></desc>
  </metadata>
  <trk>
    <name><![CDATA[2014-08-05-01]]></name>
    <trkseg>
      <trkpt lat="46.78404" lon="5.39505">
        <ele>208.8</ele>
        <time>2014-08-05T13:39:38Z</time>
      </trkpt>
      <trkpt lat="46.7839" lon="5.3953">
        <ele>207.6</ele>
        <time>2014-08-05T13:40:08Z</time>
      </trkpt>
      <trkpt lat="46.78376" lon="5.39555">
        <ele>208.1</ele>
        <time>2014-08-05T13:40:31Z</time>
      </trkpt>
      <trkpt lat="46.78364" lon="5.39581">
        <ele>208.1</ele>
        <time>2014-08-05T13:40:53Z</time>
      </trkpt>
      <trkpt lat="46.78351" lon="5.39606">
        <ele>206.8</ele>
        <time>2014-08-05T13:41:39Z</time>
      </trkpt>
      <trkpt lat="46.7835" lon="5.39638">
        <ele>205.1</ele>
        <time>2014-08-05T13:42:02Z</time>
      </trkpt>
      <trkpt lat="46.78348" lon="5.3967">
        <ele>205.1</ele>
        <time>2014-08-05T13:42:20Z</time>
      </trkpt>
      <trkpt lat="46.78332" lon="5.39692">
        <ele>203.6</ele>
        <time>2014-08-05T13:43:28Z</time>
      </trkpt>
      <trkpt lat="46.78341" lon="5.39722">
        <ele>202.1</ele>
        <time>2014-08-05T13:48:51Z</time>
      </trkpt>
      <trkpt lat="46.78336" lon="5.39753">
        <ele>201.5</ele>
        <time>2014-08-05T13:54:36Z</time>
      </trkpt>
      <trkpt lat="46.78334" lon="5.39785">
        <ele>200.3</ele>
        <time>2014-08-05T13:55:02Z</time>
      </trkpt>
      <trkpt lat="46.78322" lon="5.39812">
        <ele>200.1</ele>
        <time>2014-08-05T13:55:19Z</time>
      </trkpt>
      <trkpt lat="46.78313" lon="5.39841">
        <ele>200.5</ele>
        <time>2014-08-05T13:55:41Z</time>
      </trkpt>
      <trkpt lat="46.78309" lon="5.39872">
        <ele>201.1</ele>
        <time>2014-08-05T13:55:58Z</time>
      </trkpt>
      <trkpt lat="46.78303" lon="5.39903">
        <ele>201.6</ele>
        <time>2014-08-05T13:56:16Z</time>
      </trkpt>
      <trkpt lat="46.78296" lon="5.39934">
        <ele>202.3</ele>
        <time>2014-08-05T13:56:37Z</time>
      </trkpt>
      <trkpt lat="46.78288" lon="5.39963">
        <ele>202.8</ele>
        <time>2014-08-05T13:56:58Z</time>
      </trkpt>
      <trkpt lat="46.78275" lon="5.39989">
        <ele>203.6</ele>
        <time>2014-08-05T13:57:18Z</time>
      </trkpt>
      <trkpt lat="46.78257" lon="5.4001">
        <ele>204.3</ele>
        <time>2014-08-05T13:57:42Z</time>
      </trkpt>
      <trkpt lat="46.78237" lon="5.40023">
        <ele>204.1</ele>
        <time>2014-08-05T13:58:05Z</time>
      </trkpt>
      <trkpt lat="46.78216" lon="5.4003">
        <ele>204.1</ele>
        <time>2014-08-05T13:58:25Z</time>
      </trkpt>
      <trkpt lat="46.78196" lon="5.40043">
        <ele>205.1</ele>
        <time>2014-08-05T13:58:55Z</time>
      </trkpt>
      <trkpt lat="46.78176" lon="5.40053">
        <ele>204.8</ele>
        <time>2014-08-05T13:59:20Z</time>
      </trkpt>
      <trkpt lat="46.78155" lon="5.40061">
        <ele>204.1</ele>
        <time>2014-08-05T13:59:43Z</time>
      </trkpt>
      <trkpt lat="46.78135" lon="5.40077">
        <ele>204.3</ele>
        <time>2014-08-05T14:00:18Z</time>
      </trkpt>
      <trkpt lat="46.78123" lon="5.40103">
        <ele>204.8</ele>
        <time>2014-08-05T14:01:15Z</time>
      </trkpt>
      <trkpt lat="46.78116" lon="5.40133">
        <ele>204.8</ele>
        <time>2014-08-05T14:01:37Z</time>
      </trkpt>
      <trkpt lat="46.78112" lon="5.40164">
        <ele>205.1</ele>
        <time>2014-08-05T14:02:00Z</time>
      </trkpt>
      <trkpt lat="46.78122" lon="5.40193">
        <ele>205.5</ele>
        <time>2014-08-05T14:02:21Z</time>
      </trkpt>
      <trkpt lat="46.78131" lon="5.40222">
        <ele>206.6</ele>
        <time>2014-08-05T14:02:40Z</time>
      </trkpt>
      <trkpt lat="46.78147" lon="5.40245">
        <ele>207.6</ele>
        <time>2014-08-05T14:03:03Z</time>
      </trkpt>
      <trkpt lat="46.78159" lon="5.40272">
        <ele>207.6</ele>
        <time>2014-08-05T14:03:26Z</time>
      </trkpt>
      <trkpt lat="46.78173" lon="5.40298">
        <ele>207.3</ele>
        <time>2014-08-05T14:03:46Z</time>
      </trkpt>
      <trkpt lat="46.7819" lon="5.40318">
        <ele>206.6</ele>
        <time>2014-08-05T14:04:11Z</time>
      </trkpt>
      <trkpt lat="46.7821" lon="5.4031">
        <ele>206</ele>
        <time>2014-08-05T14:04:49Z</time>
      </trkpt>
      <trkpt lat="46.78232" lon="5.40302">
        <ele>205.6</ele>
        <time>2014-08-05T14:05:05Z</time>
      </trkpt>
      <trkpt lat="46.78253" lon="5.40301">
        <ele>205.3</ele>
        <time>2014-08-05T14:05:36Z</time>
      </trkpt>
      <trkpt lat="46.78275" lon="5.40301">
        <ele>205.1</ele>
        <time>2014-08-05T14:05:52Z</time>
      </trkpt>
      <trkpt lat="46.78296" lon="5.40294">
        <ele>205.1</ele>
        <time>2014-08-05T14:06:18Z</time>
      </trkpt>
      <trkpt lat="46.78319" lon="5.40294">
        <ele>204.8</ele>
        <time>2014-08-05T14:07:05Z</time>
      </trkpt>
      <trkpt lat="46.78339" lon="5.40308">
        <ele>202.6</ele>
        <time>2014-08-05T14:09:16Z</time>
      </trkpt>
      <trkpt lat="46.78356" lon="5.40328">
        <ele>202.8</ele>
        <time>2014-08-05T14:09:59Z</time>
      </trkpt>
      <trkpt lat="46.78343" lon="5.40354">
        <ele>204.1</ele>
        <time>2014-08-05T14:10:41Z</time>
      </trkpt>
      <trkpt lat="46.78344" lon="5.40321">
        <ele>205</ele>
        <time>2014-08-05T14:13:03Z</time>
      </trkpt>
      <trkpt lat="46.78332" lon="5.40294">
        <ele>204.3</ele>
        <time>2014-08-05T14:14:32Z</time>
      </trkpt>
      <trkpt lat="46.7831" lon="5.40294">
        <ele>202.1</ele>
        <time>2014-08-05T14:14:54Z</time>
      </trkpt>
      <trkpt lat="46.78288" lon="5.40301">
        <ele>200.6</ele>
        <time>2014-08-05T14:15:17Z</time>
      </trkpt>
      <trkpt lat="46.78266" lon="5.40304">
        <ele>200.3</ele>
        <time>2014-08-05T14:15:59Z</time>
      </trkpt>
      <trkpt lat="46.78244" lon="5.40298">
        <ele>199.6</ele>
        <time>2014-08-05T14:16:28Z</time>
      </trkpt>
      <trkpt lat="46.78222" lon="5.40301">
        <ele>198.8</ele>
        <time>2014-08-05T14:17:02Z</time>
      </trkpt>
      <trkpt lat="46.78203" lon="5.40317">
        <ele>198.6</ele>
        <time>2014-08-05T14:17:35Z</time>
      </trkpt>
      <trkpt lat="46.78186" lon="5.40296">
        <ele>198.5</ele>
        <time>2014-08-05T14:18:11Z</time>
      </trkpt>
      <trkpt lat="46.78167" lon="5.40279">
        <ele>198.1</ele>
        <time>2014-08-05T14:18:52Z</time>
      </trkpt>
      <trkpt lat="46.78162" lon="5.40248">
        <ele>198.3</ele>
        <time>2014-08-05T14:20:02Z</time>
      </trkpt>
      <trkpt lat="46.7815" lon="5.40221">
        <ele>198.6</ele>
        <time>2014-08-05T14:21:06Z</time>
      </trkpt>
      <trkpt lat="46.78143" lon="5.4019">
        <ele>198.3</ele>
        <time>2014-08-05T14:21:34Z</time>
      </trkpt>
      <trkpt lat="46.78135" lon="5.40161">
        <ele>199.1</ele>
        <time>2014-08-05T14:21:52Z</time>
      </trkpt>
      <trkpt lat="46.78126" lon="5.40132">
        <ele>199.6</ele>
        <time>2014-08-05T14:22:11Z</time>
      </trkpt>
      <trkpt lat="46.78121" lon="5.40101">
        <ele>200.5</ele>
        <time>2014-08-05T14:22:32Z</time>
      </trkpt>
      <trkpt lat="46.78102" lon="5.40084">
        <ele>200.6</ele>
        <time>2014-08-05T14:23:21Z</time>
      </trkpt>
      <trkpt lat="46.7808" lon="5.40089">
        <ele>200.8</ele>
        <time>2014-08-05T14:23:41Z</time>
      </trkpt>
      <trkpt lat="46.78058" lon="5.4009">
        <ele>200.6</ele>
        <time>2014-08-05T14:24:07Z</time>
      </trkpt>
      <trkpt lat="46.78037" lon="5.40087">
        <ele>200.3</ele>
        <time>2014-08-05T14:24:28Z</time>
      </trkpt>
      <trkpt lat="46.78016" lon="5.40099">
        <ele>200.3</ele>
        <time>2014-08-05T14:24:49Z</time>
      </trkpt>
      <trkpt lat="46.77996" lon="5.40113">
        <ele>201.1</ele>
        <time>2014-08-05T14:25:14Z</time>
      </trkpt>
      <trkpt lat="46.77978" lon="5.40133">
        <ele>201.5</ele>
        <time>2014-08-05T14:25:37Z</time>
      </trkpt>
      <trkpt lat="46.7796" lon="5.40148">
        <ele>201.8</ele>
        <time>2014-08-05T14:25:57Z</time>
      </trkpt>
      <trkpt lat="46.77938" lon="5.40157">
        <ele>201.6</ele>
        <time>2014-08-05T14:26:19Z</time>
      </trkpt>
      <trkpt lat="46.77919" lon="5.40172">
        <ele>201.6</ele>
        <time>2014-08-05T14:26:48Z</time>
      </trkpt>
      <trkpt lat="46.77903" lon="5.40195">
        <ele>201.6</ele>
        <time>2014-08-05T14:27:19Z</time>
      </trkpt>
      <trkpt lat="46.77882" lon="5.40208">
        <ele>201.5</ele>
        <time>2014-08-05T14:27:56Z</time>
      </trkpt>
      <trkpt lat="46.77861" lon="5.40216">
        <ele>201.3</ele>
        <time>2014-08-05T14:28:32Z</time>
      </trkpt>
      <trkpt lat="46.77839" lon="5.40217">
        <ele>201.3</ele>
        <time>2014-08-05T14:28:53Z</time>
      </trkpt>
      <trkpt lat="46.77817" lon="5.40213">
        <ele>201.1</ele>
        <time>2014-08-05T14:29:12Z</time>
      </trkpt>
      <trkpt lat="46.77796" lon="5.40207">
        <ele>201</ele>
        <time>2014-08-05T14:29:30Z</time>
      </trkpt>
      <trkpt lat="46.77774" lon="5.40201">
        <ele>200.8</ele>
        <time>2014-08-05T14:29:48Z</time>
      </trkpt>
      <trkpt lat="46.77753" lon="5.4019">
        <ele>201.3</ele>
        <time>2014-08-05T14:30:02Z</time>
      </trkpt>
      <trkpt lat="46.77732" lon="5.4018">
        <ele>202.3</ele>
        <time>2014-08-05T14:30:17Z</time>
      </trkpt>
      <trkpt lat="46.77711" lon="5.40172">
        <ele>204.3</ele>
        <time>2014-08-05T14:30:35Z</time>
      </trkpt>
      <trkpt lat="46.7769" lon="5.40168">
        <ele>207.5</ele>
        <time>2014-08-05T14:31:03Z</time>
      </trkpt>
      <trkpt lat="46.77673" lon="5.40189">
        <ele>211</ele>
        <time>2014-08-05T14:31:44Z</time>
      </trkpt>
      <trkpt lat="46.77671" lon="5.40221">
        <ele>212</ele>
        <time>2014-08-05T14:32:06Z</time>
      </trkpt>
      <trkpt lat="46.77667" lon="5.40253">
        <ele>213.3</ele>
        <time>2014-08-05T14:32:27Z</time>
      </trkpt>
      <trkpt lat="46.77664" lon="5.40284">
        <ele>214</ele>
        <time>2014-08-05T14:32:45Z</time>
      </trkpt>
      <trkpt lat="46.77661" lon="5.40316">
        <ele>214.8</ele>
        <time>2014-08-05T14:33:10Z</time>
      </trkpt>
      <trkpt lat="46.77658" lon="5.40347">
        <ele>215.6</ele>
        <time>2014-08-05T14:33:31Z</time>
      </trkpt>
      <trkpt lat="46.77653" lon="5.40379">
        <ele>214.5</ele>
        <time>2014-08-05T14:34:12Z</time>
      </trkpt>
      <trkpt lat="46.77642" lon="5.40407">
        <ele>214.1</ele>
        <time>2014-08-05T14:34:32Z</time>
      </trkpt>
      <trkpt lat="46.7763" lon="5.40434">
        <ele>214.1</ele>
        <time>2014-08-05T14:34:54Z</time>
      </trkpt>
      <trkpt lat="46.77619" lon="5.40462">
        <ele>214</ele>
        <time>2014-08-05T14:35:16Z</time>
      </trkpt>
      <trkpt lat="46.7761" lon="5.40492">
        <ele>213.6</ele>
        <time>2014-08-05T14:35:56Z</time>
      </trkpt>
      <trkpt lat="46.77599" lon="5.40519">
        <ele>214.1</ele>
        <time>2014-08-05T14:36:16Z</time>
      </trkpt>
      <trkpt lat="46.77589" lon="5.40547">
        <ele>214.8</ele>
        <time>2014-08-05T14:36:36Z</time>
      </trkpt>
      <trkpt lat="46.77579" lon="5.40576">
        <ele>215.5</ele>
        <time>2014-08-05T14:36:59Z</time>
      </trkpt>
      <trkpt lat="46.77568" lon="5.40603">
        <ele>215.8</ele>
        <time>2014-08-05T14:38:30Z</time>
      </trkpt>
      <trkpt lat="46.77584" lon="5.40624">
        <ele>214.8</ele>
        <time>2014-08-05T14:38:59Z</time>
      </trkpt>
      <trkpt lat="46.77606" lon="5.40627">
        <ele>213.8</ele>
        <time>2014-08-05T14:40:27Z</time>
      </trkpt>
      <trkpt lat="46.77624" lon="5.40647">
        <ele>211.3</ele>
        <time>2014-08-05T14:51:27Z</time>
      </trkpt>
      <trkpt lat="46.77642" lon="5.40664">
        <ele>211.1</ele>
        <time>2014-08-05T14:51:47Z</time>
      </trkpt>
      <trkpt lat="46.77664" lon="5.40668">
        <ele>212.3</ele>
        <time>2014-08-05T14:52:28Z</time>
      </trkpt>
      <trkpt lat="46.77686" lon="5.40662">
        <ele>213.3</ele>
        <time>2014-08-05T14:53:01Z</time>
      </trkpt>
      <trkpt lat="46.77707" lon="5.40669">
        <ele>212.1</ele>
        <time>2014-08-05T14:53:25Z</time>
      </trkpt>
      <trkpt lat="46.77727" lon="5.40678">
        <ele>211.3</ele>
        <time>2014-08-05T14:53:48Z</time>
      </trkpt>
      <trkpt lat="46.77748" lon="5.40688">
        <ele>210.3</ele>
        <time>2014-08-05T14:54:11Z</time>
      </trkpt>
      <trkpt lat="46.7777" lon="5.40692">
        <ele>209</ele>
        <time>2014-08-05T14:54:42Z</time>
      </trkpt>
      <trkpt lat="46.77789" lon="5.40709">
        <ele>207.8</ele>
        <time>2014-08-05T14:55:02Z</time>
      </trkpt>
      <trkpt lat="46.77805" lon="5.4073">
        <ele>207.5</ele>
        <time>2014-08-05T14:55:16Z</time>
      </trkpt>
      <trkpt lat="46.77821" lon="5.40753">
        <ele>207.1</ele>
        <time>2014-08-05T14:55:36Z</time>
      </trkpt>
      <trkpt lat="46.7784" lon="5.40769">
        <ele>207.1</ele>
        <time>2014-08-05T14:55:58Z</time>
      </trkpt>
      <trkpt lat="46.7786" lon="5.4078">
        <ele>206.8</ele>
        <time>2014-08-05T14:56:23Z</time>
      </trkpt>
      <trkpt lat="46.7788" lon="5.40793">
        <ele>206.6</ele>
        <time>2014-08-05T14:56:58Z</time>
      </trkpt>
      <trkpt lat="46.77902" lon="5.40798">
        <ele>205.8</ele>
        <time>2014-08-05T14:57:28Z</time>
      </trkpt>
      <trkpt lat="46.77923" lon="5.40804">
        <ele>205.6</ele>
        <time>2014-08-05T14:57:53Z</time>
      </trkpt>
      <trkpt lat="46.77943" lon="5.40813">
        <ele>205.1</ele>
        <time>2014-08-05T14:58:15Z</time>
      </trkpt>
      <trkpt lat="46.77963" lon="5.40825">
        <ele>205.1</ele>
        <time>2014-08-05T14:58:32Z</time>
      </trkpt>
      <trkpt lat="46.77976" lon="5.408">
        <ele>204.1</ele>
        <time>2014-08-05T14:59:02Z</time>
      </trkpt>
      <trkpt lat="46.7799" lon="5.40773">
        <ele>204.5</ele>
        <time>2014-08-05T14:59:50Z</time>
      </trkpt>
      <trkpt lat="46.78012" lon="5.40769">
        <ele>204.3</ele>
        <time>2014-08-05T15:00:56Z</time>
      </trkpt>
      <trkpt lat="46.78032" lon="5.40782">
        <ele>204.3</ele>
        <time>2014-08-05T15:01:15Z</time>
      </trkpt>
      <trkpt lat="46.7805" lon="5.408">
        <ele>204.1</ele>
        <time>2014-08-05T15:02:34Z</time>
      </trkpt>
      <trkpt lat="46.78073" lon="5.40801">
        <ele>205.1</ele>
        <time>2014-08-05T15:03:00Z</time>
      </trkpt>
      <trkpt lat="46.78094" lon="5.40805">
        <ele>205.8</ele>
        <time>2014-08-05T15:03:29Z</time>
      </trkpt>
      <trkpt lat="46.78115" lon="5.40815">
        <ele>205</ele>
        <time>2014-08-05T15:03:59Z</time>
      </trkpt>
      <trkpt lat="46.78134" lon="5.40833">
        <ele>203.5</ele>
        <time>2014-08-05T15:04:21Z</time>
      </trkpt>
      <trkpt lat="46.78155" lon="5.40831">
        <ele>202.8</ele>
        <time>2014-08-05T15:05:05Z</time>
      </trkpt>
      <trkpt lat="46.78175" lon="5.40816">
        <ele>202.8</ele>
        <time>2014-08-05T15:05:29Z</time>
      </trkpt>
      <trkpt lat="46.7819" lon="5.40794">
        <ele>204.1</ele>
        <time>2014-08-05T15:06:46Z</time>
      </trkpt>
      <trkpt lat="46.78206" lon="5.40774">
        <ele>204.6</ele>
        <time>2014-08-05T15:07:04Z</time>
      </trkpt>
      <trkpt lat="46.78219" lon="5.40747">
        <ele>208.8</ele>
        <time>2014-08-05T15:07:32Z</time>
      </trkpt>
      <trkpt lat="46.78227" lon="5.40718">
        <ele>211.3</ele>
        <time>2014-08-05T15:08:07Z</time>
      </trkpt>
      <trkpt lat="46.78238" lon="5.40689">
        <ele>211.8</ele>
        <time>2014-08-05T15:08:45Z</time>
      </trkpt>
      <trkpt lat="46.78253" lon="5.40666">
        <ele>210.8</ele>
        <time>2014-08-05T15:11:01Z</time>
      </trkpt>
      <trkpt lat="46.78273" lon="5.40651">
        <ele>210.6</ele>
        <time>2014-08-05T15:11:40Z</time>
      </trkpt>
      <trkpt lat="46.78294" lon="5.40644">
        <ele>210.6</ele>
        <time>2014-08-05T15:12:21Z</time>
      </trkpt>
      <trkpt lat="46.78301" lon="5.40613">
        <ele>209.3</ele>
        <time>2014-08-05T15:13:01Z</time>
      </trkpt>
      <trkpt lat="46.78315" lon="5.40588">
        <ele>208.6</ele>
        <time>2014-08-05T15:13:26Z</time>
      </trkpt>
      <trkpt lat="46.78336" lon="5.40576">
        <ele>209</ele>
        <time>2014-08-05T15:14:08Z</time>
      </trkpt>
      <trkpt lat="46.78351" lon="5.40552">
        <ele>209.1</ele>
        <time>2014-08-05T15:14:29Z</time>
      </trkpt>
      <trkpt lat="46.7836" lon="5.40523">
        <ele>209.6</ele>
        <time>2014-08-05T15:14:58Z</time>
      </trkpt>
      <trkpt lat="46.78372" lon="5.40496">
        <ele>208.8</ele>
        <time>2014-08-05T15:15:35Z</time>
      </trkpt>
      <trkpt lat="46.78387" lon="5.40474">
        <ele>208.5</ele>
        <time>2014-08-05T15:16:00Z</time>
      </trkpt>
      <trkpt lat="46.78402" lon="5.4045">
        <ele>208.8</ele>
        <time>2014-08-05T15:17:36Z</time>
      </trkpt>
      <trkpt lat="46.78424" lon="5.40444">
        <ele>207.3</ele>
        <time>2014-08-05T15:19:19Z</time>
      </trkpt>
      <trkpt lat="46.78445" lon="5.40433">
        <ele>205</ele>
        <time>2014-08-05T15:19:57Z</time>
      </trkpt>
      <trkpt lat="46.78461" lon="5.40415">
        <ele>203.6</ele>
        <time>2014-08-05T15:21:07Z</time>
      </trkpt>
      <trkpt lat="46.78484" lon="5.40415">
        <ele>204.1</ele>
        <time>2014-08-05T15:21:42Z</time>
      </trkpt>
      <trkpt lat="46.7848" lon="5.40384">
        <ele>205.5</ele>
        <time>2014-08-05T15:26:29Z</time>
      </trkpt>
      <trkpt lat="46.7849" lon="5.40356">
        <ele>205.3</ele>
        <time>2014-08-05T15:26:57Z</time>
      </trkpt>
      <trkpt lat="46.78509" lon="5.4034">
        <ele>205.6</ele>
        <time>2014-08-05T15:27:20Z</time>
      </trkpt>
      <trkpt lat="46.78532" lon="5.40338">
        <ele>205.8</ele>
        <time>2014-08-05T15:27:47Z</time>
      </trkpt>
      <trkpt lat="46.78553" lon="5.40328">
        <ele>205.6</ele>
        <time>2014-08-05T15:28:20Z</time>
      </trkpt>
      <trkpt lat="46.78567" lon="5.40304">
        <ele>205.1</ele>
        <time>2014-08-05T15:28:48Z</time>
      </trkpt>
      <trkpt lat="46.7858" lon="5.40277">
        <ele>205.6</ele>
        <time>2014-08-05T15:29:09Z</time>
      </trkpt>
      <trkpt lat="46.786" lon="5.40264">
        <ele>206.8</ele>
        <time>2014-08-05T15:29:35Z</time>
      </trkpt>
      <trkpt lat="46.78611" lon="5.40237">
        <ele>207.8</ele>
        <time>2014-08-05T15:30:12Z</time>
      </trkpt>
      <trkpt lat="46.78627" lon="5.40216">
        <ele>208.6</ele>
        <time>2014-08-05T15:30:33Z</time>
      </trkpt>
      <trkpt lat="46.78643" lon="5.40193">
        <ele>209</ele>
        <time>2014-08-05T15:30:54Z</time>
      </trkpt>
      <trkpt lat="46.78656" lon="5.40168">
        <ele>209.6</ele>
        <time>2014-08-05T15:31:19Z</time>
      </trkpt>
      <trkpt lat="46.78663" lon="5.40138">
        <ele>209.6</ele>
        <time>2014-08-05T15:31:40Z</time>
      </trkpt>
      <trkpt lat="46.78666" lon="5.40107">
        <ele>209.8</ele>
        <time>2014-08-05T15:32:02Z</time>
      </trkpt>
      <trkpt lat="46.78669" lon="5.40075">
        <ele>210.3</ele>
        <time>2014-08-05T15:32:22Z</time>
      </trkpt>
      <trkpt lat="46.78673" lon="5.40043">
        <ele>209.8</ele>
        <time>2014-08-05T15:32:51Z</time>
      </trkpt>
      <trkpt lat="46.78674" lon="5.40011">
        <ele>209.5</ele>
        <time>2014-08-05T15:33:17Z</time>
      </trkpt>
      <trkpt lat="46.7867" lon="5.39979">
        <ele>209.6</ele>
        <time>2014-08-05T15:33:37Z</time>
      </trkpt>
      <trkpt lat="46.78669" lon="5.39947">
        <ele>210.5</ele>
        <time>2014-08-05T15:34:00Z</time>
      </trkpt>
      <trkpt lat="46.78668" lon="5.39914">
        <ele>212.3</ele>
        <time>2014-08-05T15:34:24Z</time>
      </trkpt>
      <trkpt lat="46.78667" lon="5.39882">
        <ele>212.8</ele>
        <time>2014-08-05T15:34:47Z</time>
      </trkpt>
      <trkpt lat="46.78668" lon="5.3985">
        <ele>212.3</ele>
        <time>2014-08-05T15:35:08Z</time>
      </trkpt>
      <trkpt lat="46.78672" lon="5.39818">
        <ele>211.8</ele>
        <time>2014-08-05T15:35:30Z</time>
      </trkpt>
      <trkpt lat="46.78674" lon="5.39786">
        <ele>210.5</ele>
        <time>2014-08-05T15:36:27Z</time>
      </trkpt>
      <trkpt lat="46.7868" lon="5.39755">
        <ele>209.8</ele>
        <time>2014-08-05T15:36:51Z</time>
      </trkpt>
      <trkpt lat="46.78693" lon="5.39729">
        <ele>210.1</ele>
        <time>2014-08-05T15:37:15Z</time>
      </trkpt>
      <trkpt lat="46.78704" lon="5.39701">
        <ele>210.3</ele>
        <time>2014-08-05T15:37:36Z</time>
      </trkpt>
      <trkpt lat="46.78715" lon="5.39673">
        <ele>210.6</ele>
        <time>2014-08-05T15:38:04Z</time>
      </trkpt>
      <trkpt lat="46.78722" lon="5.39642">
        <ele>209.6</ele>
        <time>2014-08-05T15:38:49Z</time>
      </trkpt>
      <trkpt lat="46.78727" lon="5.3961">
        <ele>209.3</ele>
        <time>2014-08-05T15:39:13Z</time>
      </trkpt>
      <trkpt lat="46.78715" lon="5.39582">
        <ele>210.3</ele>
        <time>2014-08-05T15:39:40Z</time>
      </trkpt>
      <trkpt lat="46.78693" lon="5.39579">
        <ele>210.6</ele>
        <time>2014-08-05T15:40:07Z</time>
      </trkpt>
      <trkpt lat="46.78671" lon="5.39575">
        <ele>210.3</ele>
        <time>2014-08-05T15:40:34Z</time>
      </trkpt>
      <trkpt lat="46.7865" lon="5.3957">
        <ele>209.5</ele>
        <time>2014-08-05T15:40:55Z</time>
      </trkpt>
      <trkpt lat="46.78628" lon="5.39566">
        <ele>208.5</ele>
        <time>2014-08-05T15:41:23Z</time>
      </trkpt>
      <trkpt lat="46.78606" lon="5.39565">
        <ele>207.3</ele>
        <time>2014-08-05T15:41:50Z</time>
      </trkpt>
      <trkpt lat="46.78585" lon="5.3956">
        <ele>206.3</ele>
        <time>2014-08-05T15:42:07Z</time>
      </trkpt>
      <trkpt lat="46.78564" lon="5.3955">
        <ele>204.8</ele>
        <time>2014-08-05T15:42:25Z</time>
      </trkpt>
      <trkpt lat="46.78549" lon="5.39527">
        <ele>202.8</ele>
        <time>2014-08-05T15:42:52Z</time>
      </trkpt>
      <trkpt lat="46.78546" lon="5.39494">
        <ele>201.6</ele>
        <time>2014-08-05T15:43:11Z</time>
      </trkpt>
      <trkpt lat="46.7853" lon="5.39472">
        <ele>200.1</ele>
        <time>2014-08-05T15:44:14Z</time>
      </trkpt>
      <trkpt lat="46.78508" lon="5.39466">
        <ele>199.8</ele>
        <time>2014-08-05T15:45:58Z</time>
      </trkpt>
      <trkpt lat="46.78487" lon="5.39456">
        <ele>197.8</ele>
        <time>2014-08-05T15:46:52Z</time>
      </trkpt>
      <trkpt lat="46.78465" lon="5.3946">
        <ele>196.6</ele>
        <time>2014-08-05T15:47:28Z</time>
      </trkpt>
      <trkpt lat="46.78444" lon="5.39469">
        <ele>195.6</ele>
        <time>2014-08-05T15:47:56Z</time>
      </trkpt>
      <trkpt lat="46.78422" lon="5.39475">
        <ele>194.8</ele>
        <time>2014-08-05T15:48:24Z</time>
      </trkpt>
      <trkpt lat="46.78408" lon="5.395">
        <ele>194.8</ele>
        <time>2014-08-05T15:48:47Z</time>
      </trkpt>
      <trkpt lat="46.78411" lon="5.39492">
        <ele>196</ele>
        <time>2014-08-05T15:50:31Z</time>
      </trkpt>
      <trkpt lat="46.78411" lon="5.39492">
        <ele>196</ele>
        <time>2014-08-05T15:50:31Z</time>
      </trkpt>
    </trkseg>
  </trk>
</gpx>